createdAt,value
2018-12-11T00:02:10.383Z,2.60
2018-12-11T00:04:36.369Z,3.10
2018-12-11T00:07:02.353Z,3.63
2018-12-11T00:09:28.327Z,3.40
2018-12-11T00:11:54.343Z,3.10
2018-12-11T00:14:20.327Z,3.07
2018-12-11T00:16:46.303Z,4.23
2018-12-11T00:19:12.309Z,3.23
2018-12-11T00:21:38.295Z,3.43
2018-12-11T00:24:04.270Z,2.80
2018-12-11T00:26:30.251Z,2.90
2018-12-11T00:28:56.222Z,3.17
2018-12-11T00:31:22.234Z,3.23
2018-12-11T00:33:48.202Z,2.90
2018-12-11T00:36:14.191Z,2.67
2018-12-11T00:38:40.190Z,2.77
2018-12-11T00:41:06.162Z,2.80
2018-12-11T00:43:32.142Z,2.80
2018-12-11T00:45:58.134Z,2.47
2018-12-11T00:48:24.114Z,2.77
2018-12-11T00:50:50.090Z,2.27
2018-12-11T00:53:16.074Z,2.23
2018-12-11T00:55:42.052Z,2.70
2018-12-11T00:58:08.045Z,2.17
2018-12-11T01:00:34.018Z,2.40
2018-12-11T01:02:59.993Z,2.10
2018-12-11T01:05:25.998Z,2.90
2018-12-11T01:07:51.978Z,2.00
2018-12-11T01:10:17.950Z,2.20
2018-12-11T01:12:43.938Z,3.73
2018-12-11T01:15:09.926Z,2.10
2018-12-11T01:17:35.893Z,2.23
2018-12-11T01:20:01.907Z,2.43
2018-12-11T01:22:27.894Z,2.60
2018-12-11T01:24:53.867Z,2.60
2018-12-11T01:27:19.862Z,2.70
2018-12-11T01:29:45.853Z,2.13
2018-12-11T01:32:11.819Z,2.93
2018-12-11T01:34:37.819Z,2.10
2018-12-11T01:37:03.811Z,2.40
2018-12-11T01:39:29.803Z,3.27
2018-12-11T01:41:55.797Z,2.67
2018-12-11T01:44:21.771Z,2.37
2018-12-11T01:46:47.739Z,2.67
2018-12-11T01:49:13.814Z,2.30
2018-12-11T01:51:39.791Z,3.03
2018-12-11T01:54:05.787Z,2.10
2018-12-11T01:56:31.798Z,3.73
2018-12-11T01:58:57.778Z,2.87
2018-12-11T02:01:23.770Z,2.67
2018-12-11T02:03:49.971Z,3.60
2018-12-11T02:06:15.939Z,3.27
2018-12-11T02:08:41.944Z,2.77
2018-12-11T02:11:07.911Z,3.03
2018-12-11T02:13:33.898Z,2.73
2018-12-11T02:15:59.882Z,3.20
2018-12-11T02:18:25.866Z,2.57
2018-12-11T02:20:51.862Z,3.67
2018-12-11T02:23:17.838Z,2.33
2018-12-11T02:25:43.838Z,2.47
2018-12-11T02:28:09.822Z,3.13
2018-12-11T02:30:35.794Z,2.80
2018-12-11T02:33:01.790Z,2.87
2018-12-11T02:35:27.766Z,2.93
2018-12-11T02:37:53.899Z,2.30
2018-12-11T02:40:19.906Z,2.40
2018-12-11T02:43:00.830Z,1.67
2018-12-11T02:45:26.834Z,2.83
2018-12-11T02:47:52.802Z,2.67
2018-12-11T02:50:18.766Z,2.10
2018-12-11T02:52:44.774Z,2.37
2018-12-11T02:55:17.721Z,2.23
2018-12-11T02:57:43.719Z,2.60
2018-12-11T03:00:09.695Z,2.47
2018-12-11T03:02:35.720Z,2.17
2018-12-11T03:05:01.700Z,2.57
2018-12-11T03:07:27.680Z,2.77
2018-12-11T03:09:53.689Z,2.80
2018-12-11T03:12:19.682Z,2.10
2018-12-11T03:14:45.651Z,2.53
2018-12-11T03:17:11.643Z,2.80
2018-12-11T03:19:37.647Z,2.40
2018-12-11T03:22:03.622Z,2.83
2018-12-11T03:24:29.622Z,2.60
2018-12-11T03:26:55.600Z,2.13
2018-12-11T03:29:21.567Z,2.30
2018-12-11T03:31:47.562Z,2.37
2018-12-11T03:34:13.564Z,3.30
2018-12-11T03:36:39.545Z,2.80
2018-12-11T03:39:05.524Z,2.70
2018-12-11T03:41:31.507Z,2.37
2018-12-11T03:43:57.484Z,2.27
2018-12-11T03:46:23.451Z,2.07
2018-12-11T03:48:49.499Z,3.17
2018-12-11T03:51:15.492Z,2.77
2018-12-11T03:53:41.466Z,2.30
2018-12-11T03:56:07.474Z,2.73
2018-12-11T03:58:33.467Z,3.20
2018-12-11T04:00:59.441Z,2.77
2018-12-11T04:03:25.427Z,3.33
2018-12-11T04:05:51.441Z,2.47
2018-12-11T04:08:17.426Z,2.53
2018-12-11T04:10:43.406Z,3.03
2018-12-11T04:13:09.394Z,2.47
2018-12-11T04:15:35.379Z,2.90
2018-12-11T04:18:01.371Z,2.93
2018-12-11T04:20:27.366Z,2.47
2018-12-11T04:22:53.339Z,2.90
2018-12-11T04:25:19.325Z,2.50
2018-12-11T04:27:45.348Z,2.87
2018-12-11T04:30:11.318Z,2.30
2018-12-11T04:32:37.302Z,2.77
2018-12-11T04:35:03.291Z,2.70
2018-12-11T04:37:29.265Z,2.73
2018-12-11T04:39:55.255Z,2.70
2018-12-11T04:42:21.299Z,2.23
2018-12-11T04:44:47.287Z,2.60
2018-12-11T04:47:13.256Z,2.80
2018-12-11T04:49:39.239Z,2.10
2018-12-11T04:52:05.235Z,2.77
2018-12-11T04:54:31.266Z,2.70
2018-12-11T04:57:12.230Z,2.77
2018-12-11T04:59:38.207Z,2.50
2018-12-11T05:02:04.255Z,2.50
2018-12-11T05:04:30.232Z,2.97
2018-12-11T05:06:56.223Z,2.30
2018-12-11T05:09:22.219Z,2.60
2018-12-11T05:11:48.206Z,3.00
2018-12-11T05:14:14.195Z,2.90
2018-12-11T05:16:40.196Z,2.40
2018-12-11T05:19:06.169Z,2.53
2018-12-11T05:21:32.154Z,2.87
2018-12-11T05:23:58.159Z,3.43
2018-12-11T05:26:24.134Z,3.13
2018-12-11T05:28:50.139Z,2.47
2018-12-11T05:31:16.146Z,2.50
2018-12-11T05:33:42.134Z,2.40
2018-12-11T05:36:08.129Z,3.07
2018-12-11T05:38:34.118Z,3.20
2018-12-11T05:41:00.090Z,4.10
2018-12-11T05:43:26.062Z,3.43
2018-12-11T05:45:52.116Z,3.50
2018-12-11T05:48:18.106Z,3.00
2018-12-11T05:50:44.094Z,2.80
2018-12-11T05:53:10.077Z,3.00
2018-12-11T05:55:36.059Z,3.53
2018-12-11T05:58:02.047Z,3.80
2018-12-11T06:00:28.042Z,3.07
2018-12-11T06:02:54.096Z,2.97
2018-12-11T06:05:20.114Z,3.47
2018-12-11T06:07:46.099Z,3.60
2018-12-11T06:10:12.088Z,3.43
2018-12-11T06:12:38.088Z,3.60
2018-12-11T06:15:04.078Z,2.80
2018-12-11T06:17:30.051Z,3.10
2018-12-11T06:19:56.049Z,3.80
2018-12-11T06:22:22.037Z,3.33
2018-12-11T06:24:48.047Z,3.00
2018-12-11T06:27:14.024Z,3.13
2018-12-11T06:29:39.993Z,3.70
2018-12-11T06:32:05.979Z,3.30
2018-12-11T06:34:31.946Z,2.90
2018-12-11T06:36:57.952Z,2.83
2018-12-11T06:39:23.939Z,2.87
2018-12-11T06:41:49.916Z,3.50
2018-12-11T06:44:15.911Z,2.53
2018-12-11T06:46:41.917Z,2.70
2018-12-11T06:49:07.899Z,3.23
2018-12-11T06:51:33.870Z,2.53
2018-12-11T06:53:59.853Z,2.83
2018-12-11T06:56:25.838Z,3.33
2018-12-11T06:58:51.807Z,3.87
2018-12-11T07:01:17.782Z,2.80
2018-12-11T07:03:43.751Z,4.07
2018-12-11T07:06:09.730Z,9.17
2018-12-11T07:08:35.718Z,5.60
2018-12-11T07:11:01.691Z,6.37
2018-12-11T07:13:27.667Z,4.93
2018-12-11T07:16:00.562Z,3.90
2018-12-11T07:18:26.557Z,3.90
2018-12-11T07:20:52.522Z,2.87
2018-12-11T07:23:18.495Z,4.27
2018-12-11T07:25:44.483Z,4.37
2018-12-11T07:28:10.457Z,3.03
2018-12-11T07:30:36.443Z,2.90
2018-12-11T07:33:02.411Z,3.30
2018-12-11T07:35:28.395Z,3.00
2018-12-11T07:37:54.383Z,2.83
2018-12-11T07:40:20.352Z,3.27
2018-12-11T07:42:46.346Z,3.30
2018-12-11T07:45:12.318Z,3.97
2018-12-11T07:47:38.330Z,3.30
2018-12-11T07:50:04.290Z,3.10
2018-12-11T07:52:30.279Z,3.60
2018-12-11T07:54:56.267Z,3.43
2018-12-11T07:57:22.264Z,2.70
2018-12-11T07:59:48.243Z,4.13
2018-12-11T08:02:14.267Z,3.47
2018-12-11T08:04:40.249Z,3.70
2018-12-11T08:07:06.221Z,3.77
2018-12-11T08:09:32.202Z,3.40
2018-12-11T08:11:58.191Z,3.17
2018-12-11T08:14:24.177Z,3.33
2018-12-11T08:16:50.146Z,4.13
2018-12-11T08:19:16.139Z,3.40
2018-12-11T08:21:42.142Z,3.37
2018-12-11T08:24:08.135Z,3.90
2018-12-11T08:26:34.105Z,4.30
2018-12-11T08:29:00.088Z,4.10
2018-12-11T08:31:26.061Z,3.10
2018-12-11T08:33:52.047Z,3.57
2018-12-11T08:36:18.039Z,4.20
2018-12-11T08:38:44.007Z,4.03
2018-12-11T08:41:09.979Z,3.70
2018-12-11T08:43:35.966Z,4.30
2018-12-11T08:46:01.952Z,5.80
2018-12-11T08:48:27.919Z,3.87
2018-12-11T08:50:53.911Z,3.10
2018-12-11T08:53:19.877Z,3.23
2018-12-11T08:55:45.875Z,14.33
2018-12-11T08:58:11.848Z,28.00
2018-12-11T09:00:37.831Z,3.40
2018-12-11T09:03:03.807Z,2.93
2018-12-11T09:05:29.793Z,3.30
2018-12-11T09:07:55.772Z,3.23
2018-12-11T09:10:21.771Z,4.17
2018-12-11T09:12:47.762Z,3.33
2018-12-11T09:15:13.746Z,2.97
2018-12-11T09:17:39.731Z,2.93
2018-12-11T09:20:05.699Z,3.43
2018-12-11T09:22:31.683Z,3.83
2018-12-11T09:24:57.664Z,3.30
2018-12-11T09:27:23.654Z,3.90
2018-12-11T09:29:49.626Z,3.60
2018-12-11T09:32:15.628Z,3.47
2018-12-11T09:34:41.618Z,2.97
2018-12-11T09:37:07.615Z,3.10
2018-12-11T09:39:33.595Z,2.93
2018-12-11T09:41:59.578Z,3.70
2018-12-11T09:44:25.584Z,3.47
2018-12-11T09:46:51.557Z,3.67
2018-12-11T09:49:17.530Z,2.50
2018-12-11T09:51:43.507Z,2.63
2018-12-11T09:54:09.491Z,3.50
2018-12-11T09:56:35.456Z,2.50
2018-12-11T09:59:01.426Z,2.90
2018-12-11T10:01:27.417Z,2.97
2018-12-11T10:03:53.392Z,2.80
2018-12-11T10:06:19.374Z,2.57
2018-12-11T10:08:45.328Z,2.47
2018-12-11T10:11:11.299Z,2.97
2018-12-11T10:13:37.347Z,3.33
2018-12-11T10:16:03.322Z,2.70
2018-12-11T10:18:29.295Z,3.03
2018-12-11T10:20:55.278Z,2.80
2018-12-11T10:23:21.275Z,3.33
2018-12-11T10:25:47.271Z,2.53
2018-12-11T10:28:13.242Z,3.20
2018-12-11T10:30:45.167Z,3.77
2018-12-11T10:33:11.140Z,3.30
2018-12-11T10:35:37.131Z,3.10
2018-12-11T10:38:13.092Z,6.00
2018-12-11T10:40:39.084Z,3.80
2018-12-11T10:43:05.070Z,2.97
2018-12-11T10:45:46.018Z,3.03
2018-12-11T10:48:11.991Z,3.40
2018-12-11T10:50:37.978Z,3.33
2018-12-11T10:53:03.958Z,3.53
2018-12-11T10:55:29.936Z,3.90
2018-12-11T10:57:55.930Z,3.60
2018-12-11T11:00:27.938Z,3.37
2018-12-11T11:02:59.895Z,3.97
2018-12-11T11:05:25.882Z,4.50
2018-12-11T11:07:51.890Z,4.20
2018-12-11T11:10:17.920Z,3.60
2018-12-11T11:12:50.862Z,4.20
2018-12-11T11:15:16.882Z,3.80
2018-12-11T11:17:42.846Z,3.63
2018-12-11T11:20:08.827Z,3.70
2018-12-11T11:22:34.794Z,3.50
2018-12-11T11:25:00.787Z,4.37
2018-12-11T11:27:26.767Z,3.53
2018-12-11T11:29:52.764Z,3.80
2018-12-11T11:32:18.751Z,3.80
2018-12-11T11:34:44.739Z,3.67
2018-12-11T11:37:10.732Z,3.80
2018-12-11T11:39:36.723Z,4.10
2018-12-11T11:42:02.698Z,3.70
2018-12-11T11:44:28.686Z,3.87
2018-12-11T11:46:54.662Z,4.97
2018-12-11T11:49:20.646Z,3.90
2018-12-11T11:51:46.628Z,3.70
2018-12-11T11:54:12.609Z,4.13
2018-12-11T11:56:38.596Z,3.27
2018-12-11T11:59:04.584Z,3.57
2018-12-11T12:01:30.563Z,4.27
2018-12-11T12:03:56.560Z,3.63
2018-12-11T12:06:22.560Z,3.20
2018-12-11T12:08:48.550Z,3.90
2018-12-11T12:11:14.550Z,2.60
2018-12-11T12:13:40.547Z,2.97
2018-12-11T12:16:06.540Z,3.27
2018-12-11T12:18:32.596Z,1.97
2018-12-11T12:20:58.679Z,3.30
2018-12-11T12:23:24.676Z,5.00
2018-12-11T12:25:50.689Z,3.10
2018-12-11T12:28:16.718Z,2.90
2018-12-11T12:30:42.714Z,2.90
2018-12-11T12:33:08.694Z,2.90
2018-12-11T12:35:34.690Z,2.70
2018-12-11T12:38:00.674Z,2.80
2018-12-11T12:40:26.667Z,3.23
2018-12-11T12:42:52.663Z,3.20
2018-12-11T12:45:18.804Z,3.73
2018-12-11T12:47:44.795Z,2.63
2018-12-11T12:50:10.787Z,2.20
2018-12-11T12:52:36.773Z,2.27
2018-12-11T12:55:02.778Z,2.40
2018-12-11T12:57:28.778Z,2.67
2018-12-11T12:59:54.778Z,2.70
2018-12-11T13:02:20.779Z,2.60
2018-12-11T13:04:46.779Z,3.00
2018-12-11T13:07:12.764Z,2.43
2018-12-11T13:09:38.760Z,2.30
2018-12-11T13:12:04.768Z,3.10
2018-12-11T13:14:30.763Z,3.20
2018-12-11T13:16:56.763Z,3.37
2018-12-11T13:19:22.746Z,4.07
2018-12-11T13:21:48.735Z,3.43
2018-12-11T13:24:14.718Z,3.10
2018-12-11T13:26:40.722Z,5.70
2018-12-11T13:29:06.730Z,3.37
2018-12-11T13:31:32.727Z,3.93
2018-12-11T13:33:58.714Z,3.70
2018-12-11T13:36:24.710Z,3.47
2018-12-11T13:38:50.710Z,4.40
2018-12-11T13:41:16.826Z,3.60
2018-12-11T13:43:43.224Z,3.40
2018-12-11T13:46:09.347Z,3.60
2018-12-11T13:48:35.659Z,3.60
2018-12-11T13:51:01.799Z,3.97
2018-12-11T13:53:27.826Z,3.40
2018-12-11T13:55:53.829Z,3.60
2018-12-11T13:58:26.755Z,3.30
2018-12-11T14:00:52.808Z,4.70
2018-12-11T14:03:18.819Z,3.63
2018-12-11T14:05:44.826Z,3.83
2018-12-11T14:08:10.837Z,4.30
2018-12-11T14:10:36.827Z,4.10
2018-12-11T14:13:02.835Z,3.10
2018-12-11T14:15:28.848Z,3.53
2018-12-11T14:17:54.868Z,4.53
2018-12-11T14:20:20.866Z,3.33
2018-12-11T14:22:46.873Z,3.47
2018-12-11T14:25:12.871Z,4.07
2018-12-11T14:27:38.872Z,3.40
2018-12-11T14:30:10.755Z,3.60
2018-12-11T14:32:30.866Z,3.60
2018-12-11T14:34:56.851Z,4.07
2018-12-11T14:37:22.852Z,3.53
2018-12-11T14:39:48.844Z,3.40
2018-12-11T14:42:14.830Z,2.90
2018-12-11T14:44:40.825Z,2.93
2018-12-11T14:47:06.834Z,3.90
2018-12-11T14:49:32.836Z,3.63
2018-12-11T14:51:58.850Z,5.17
2018-12-11T14:54:24.865Z,4.40
2018-12-11T14:56:50.895Z,3.60
2018-12-11T14:59:16.887Z,2.77
2018-12-11T15:01:42.886Z,3.43
2018-12-11T15:04:08.891Z,3.97
2018-12-11T15:06:34.890Z,2.40
2018-12-11T15:09:06.873Z,3.60
2018-12-11T15:11:32.867Z,3.37
2018-12-11T15:13:58.883Z,2.57
2018-12-11T15:16:24.888Z,3.00
2018-12-11T15:18:50.902Z,2.80
2018-12-11T15:21:16.895Z,2.70
2018-12-11T15:23:42.887Z,2.70
2018-12-11T15:26:08.854Z,3.10
2018-12-11T15:28:34.855Z,3.10
2018-12-11T15:31:03.882Z,3.43
2018-12-11T15:33:29.879Z,2.97
2018-12-11T15:35:55.858Z,3.20
2018-12-11T15:38:21.858Z,3.30
2018-12-11T15:40:47.917Z,3.00
2018-12-11T15:43:13.924Z,3.50
2018-12-11T15:45:39.946Z,3.60
2018-12-11T15:48:05.955Z,3.50
2018-12-11T15:50:31.958Z,5.47
2018-12-11T15:52:57.952Z,3.70
2018-12-11T15:55:23.948Z,4.10
2018-12-11T15:57:49.956Z,5.60
2018-12-11T16:00:15.947Z,4.30
2018-12-11T16:02:41.978Z,4.63
2018-12-11T16:05:08.120Z,4.00
2018-12-11T16:07:34.150Z,4.53
2018-12-11T16:10:00.135Z,3.93
2018-12-11T16:12:26.137Z,3.23
2018-12-11T16:14:52.173Z,3.50
2018-12-11T16:17:18.172Z,4.67
2018-12-11T16:19:44.171Z,3.30
2018-12-11T16:22:10.149Z,4.23
2018-12-11T16:24:36.153Z,3.23
2018-12-11T16:27:02.167Z,3.83
2018-12-11T16:29:28.152Z,3.73
2018-12-11T16:31:54.173Z,4.37
2018-12-11T16:34:20.179Z,4.50
2018-12-11T16:36:46.164Z,4.10
2018-12-11T16:39:12.174Z,4.00
2018-12-11T16:41:38.163Z,5.00
2018-12-11T16:44:04.168Z,4.63
2018-12-11T16:46:30.215Z,4.57
2018-12-11T16:48:56.207Z,4.40
2018-12-11T16:51:22.218Z,4.30
2018-12-11T16:53:48.255Z,4.77
2018-12-11T16:56:14.292Z,5.13
2018-12-11T16:58:40.354Z,5.60
2018-12-11T17:01:06.332Z,4.70
2018-12-11T17:03:32.336Z,5.10
2018-12-11T17:05:58.366Z,4.40
2018-12-11T17:08:24.350Z,4.50
2018-12-11T17:10:50.352Z,4.87
2018-12-11T17:13:16.488Z,4.43
2018-12-11T17:15:42.502Z,5.47
2018-12-11T17:18:08.518Z,5.63
2018-12-11T17:20:34.564Z,5.20
2018-12-11T17:23:00.586Z,4.50
2018-12-11T17:25:26.559Z,5.00
2018-12-11T17:27:52.566Z,5.83
2018-12-11T17:30:18.573Z,5.77
2018-12-11T17:32:44.608Z,4.73
2018-12-11T17:35:10.624Z,4.50
2018-12-11T17:37:36.607Z,4.60
2018-12-11T17:40:02.669Z,4.90
2018-12-11T17:42:28.663Z,6.77
2018-12-11T17:44:54.669Z,6.57
2018-12-11T17:47:20.697Z,8.97
2018-12-11T17:49:46.764Z,11.17
2018-12-11T17:52:12.744Z,8.00
2018-12-11T17:54:38.758Z,7.00
2018-12-11T17:57:04.773Z,5.40
2018-12-11T17:59:30.841Z,5.70
2018-12-11T18:01:56.897Z,6.70
2018-12-11T18:04:22.921Z,8.83
2018-12-11T18:06:48.894Z,11.30
2018-12-11T18:09:14.942Z,14.23
2018-12-11T18:11:40.930Z,12.30
2018-12-11T18:14:06.975Z,12.47
2018-12-11T18:16:32.975Z,11.00
2018-12-11T18:18:58.986Z,10.23
2018-12-11T18:21:25.078Z,9.77
2018-12-11T18:23:51.109Z,8.47
2018-12-11T18:26:17.180Z,9.07
2018-12-11T18:28:43.160Z,6.27
2018-12-11T18:31:09.275Z,7.03
2018-12-11T18:33:35.380Z,7.20
2018-12-11T18:36:01.388Z,7.13
2018-12-11T18:38:27.430Z,7.20
2018-12-11T18:40:53.430Z,8.33
2018-12-11T18:43:19.494Z,8.60
2018-12-11T18:45:45.521Z,7.73
2018-12-11T18:48:13.114Z,8.67
2018-12-11T18:50:41.957Z,8.77
2018-12-11T18:53:08.051Z,8.20
2018-12-11T18:55:34.385Z,9.10
2018-12-11T18:58:00.585Z,8.63
2018-12-11T19:00:26.601Z,10.10
2018-12-11T19:02:52.822Z,9.40
2018-12-11T19:05:18.956Z,8.10
2018-12-11T19:07:45.020Z,6.63
2018-12-11T19:10:11.204Z,6.77
2018-12-11T19:12:37.323Z,5.87
2018-12-11T19:15:04.811Z,7.20
2018-12-11T19:17:29.519Z,7.53
2018-12-11T19:19:55.591Z,6.57
2018-12-11T19:22:21.724Z,6.47
2018-12-11T19:24:47.836Z,7.80
2018-12-11T19:27:14.285Z,6.07
2018-12-11T19:29:42.456Z,6.97
2018-12-11T19:32:08.508Z,7.67
2018-12-11T19:34:34.556Z,7.63
2018-12-11T19:37:00.577Z,7.17
2018-12-11T19:39:26.637Z,6.70
2018-12-11T19:41:52.799Z,9.43
2018-12-11T19:44:18.793Z,7.70
2018-12-11T19:46:44.805Z,7.30
2018-12-11T19:49:11.055Z,7.33
2018-12-11T19:51:37.104Z,8.00
2018-12-11T19:54:03.126Z,8.27
2018-12-11T19:56:29.246Z,6.43
2018-12-11T19:58:55.248Z,6.87
2018-12-11T20:01:21.334Z,6.10
2018-12-11T20:03:47.473Z,6.90
2018-12-11T20:06:13.538Z,8.93
2018-12-11T20:08:39.531Z,7.80
2018-12-11T20:11:05.665Z,7.23
2018-12-11T20:13:31.635Z,6.70
2018-12-11T20:15:57.666Z,6.13
2018-12-11T20:18:23.734Z,6.80
2018-12-11T20:20:49.764Z,7.27
2018-12-11T20:23:15.811Z,7.27
2018-12-11T20:25:41.856Z,6.70
2018-12-11T20:28:07.866Z,7.37
2018-12-11T20:30:34.043Z,8.30
2018-12-11T20:33:00.181Z,7.40
2018-12-11T20:35:26.209Z,7.93
2018-12-11T20:37:52.358Z,7.40
2018-12-11T20:40:18.445Z,8.93
2018-12-11T20:42:44.662Z,8.17
2018-12-11T20:45:10.767Z,9.20
2018-12-11T20:47:36.749Z,7.77
2018-12-11T20:50:02.854Z,8.83
2018-12-11T20:52:29.013Z,8.40
2018-12-11T20:54:55.067Z,7.60
2018-12-11T20:57:21.070Z,8.97
2018-12-11T20:59:47.054Z,8.73
2018-12-11T21:02:13.066Z,8.00
2018-12-11T21:04:39.047Z,7.33
2018-12-11T21:07:05.051Z,8.90
2018-12-11T21:09:31.033Z,8.37
2018-12-11T21:11:57.026Z,7.87
2018-12-11T21:14:23.013Z,7.43
2018-12-11T21:16:49.037Z,7.47
2018-12-11T21:19:15.044Z,7.20
2018-12-11T21:21:41.074Z,7.90
2018-12-11T21:24:07.069Z,6.57
2018-12-11T21:26:33.075Z,7.20
2018-12-11T21:28:59.067Z,6.57
2018-12-11T21:31:25.055Z,6.43
2018-12-11T21:33:52.208Z,7.13
2018-12-11T21:36:18.325Z,7.10
2018-12-11T21:38:44.368Z,7.10
2018-12-11T21:41:10.363Z,6.77
2018-12-11T21:43:36.359Z,6.10
2018-12-11T21:46:02.384Z,6.17
2018-12-11T21:48:28.396Z,6.40
2018-12-11T21:50:54.379Z,6.50
2018-12-11T21:53:20.363Z,8.43
2018-12-11T21:55:46.366Z,6.83
2018-12-11T21:58:12.394Z,7.60
2018-12-11T22:00:38.378Z,7.30
2018-12-11T22:03:04.386Z,6.37
2018-12-11T22:05:30.380Z,6.70
2018-12-11T22:07:56.389Z,5.83
2018-12-11T22:10:22.416Z,7.47
2018-12-11T22:12:48.428Z,6.13
2018-12-11T22:15:14.421Z,7.43
2018-12-11T22:17:40.412Z,6.50
2018-12-11T22:20:06.404Z,7.70
2018-12-11T22:22:32.375Z,6.03
2018-12-11T22:24:58.377Z,7.00
2018-12-11T22:27:24.359Z,7.63
2018-12-11T22:29:50.360Z,6.90
2018-12-11T22:32:16.370Z,8.43
2018-12-11T22:34:42.357Z,8.17
2018-12-11T22:37:08.360Z,7.57
2018-12-11T22:39:34.371Z,8.13
2018-12-11T22:42:00.363Z,7.03
2018-12-11T22:44:26.358Z,7.83
2018-12-11T22:46:52.425Z,8.50
2018-12-11T22:49:18.410Z,7.77
2018-12-11T22:51:44.416Z,7.00
2018-12-11T22:54:10.423Z,8.00
2018-12-11T22:56:36.426Z,8.30
2018-12-11T22:59:02.400Z,9.40
2018-12-11T23:01:28.411Z,9.20
2018-12-11T23:03:54.444Z,9.57
2018-12-11T23:06:20.441Z,10.23
2018-12-11T23:08:46.432Z,10.60
2018-12-11T23:11:12.430Z,8.97
2018-12-11T23:13:38.421Z,9.17
2018-12-11T23:16:04.420Z,9.93
2018-12-11T23:18:30.406Z,10.43
2018-12-11T23:20:56.458Z,10.00
2018-12-11T23:23:22.458Z,9.77
2018-12-11T23:25:48.475Z,9.57
2018-12-11T23:28:14.472Z,8.90
2018-12-11T23:30:40.476Z,9.80
2018-12-11T23:33:06.491Z,9.80
2018-12-11T23:35:32.492Z,10.80
2018-12-11T23:37:58.475Z,9.97
2018-12-11T23:40:24.488Z,9.60
2018-12-11T23:42:50.511Z,9.10
2018-12-11T23:45:16.491Z,10.00
2018-12-11T23:47:42.482Z,9.40
2018-12-11T23:50:08.487Z,10.53
2018-12-11T23:52:34.642Z,10.77
2018-12-11T23:55:00.626Z,9.80
2018-12-11T23:57:26.606Z,9.60
2018-12-11T23:59:52.613Z,10.40
